Swift Arrow — WAFK — position and weather

sailwx.info

Track history (hours):
 
Tides and Currents Weather Stations Pressure Air Temp Water Temp Dewpoint Dewpoint Depression Visibility Wind Speed Wind Dir Waves Ship Positions

Swift Arrow

Owner: ARROW LAUNCH SERVICE INC, Port Angeles, WA. More information available from US FCC via Universal Licensing System and Coast Guard Vessel Documentation Center.

Last reported at 2016-Feb-09 05:11 UTC. Time now 2016-Feb-09 05:42 UTC.
Position N 47°15' W 122°26'.

Type: Port tender. MMSI: 369021000.

Date/timePositionNaut miles runAvg speedWind from/ knotsBaromVisibWave heightAir tempDewpointWater temp
2016-Feb-09 05:11N 47°15' W 122°26'2 0.3
2016-Feb-08 23:34N 47°17' W 122°26'2 0.0
2016-Feb-06 21:09N 47°15' W 122°26'2 3.1
2016-Feb-06 20:33N 47°17' W 122°26'1 0.8
2016-Feb-06 19:33N 47°17' W 122°26'1 0.5
2016-Feb-06 18:30N 47°17' W 122°26'1 1.5
2016-Feb-06 17:33N 47°16' W 122°26'0 0.0
2016-Feb-05 04:09N 47°15' W 122°26'4 6.8
2016-Feb-05 03:33N 47°18' W 122°30'3 1.2
2016-Feb-05 00:33N 47°16' W 122°26'0 0.1
2016-Feb-04 20:33N 47°16' W 122°27'3 3.3
2016-Feb-04 19:33N 47°18' W 122°30'0 0.1
2016-Feb-04 18:34N 47°19' W 122°30'0 0.1
2016-Feb-04 17:33N 47°18' W 122°30'2 0.1
2016-Feb-04 03:33N 47°17' W 122°27'  
2016-Feb-01 21:19N 47°15' W 122°26'1 1.8
2016-Feb-01 20:33N 47°16' W 122°27'0 0.1
2016-Feb-01 19:33N 47°17' W 122°27'0 0.0
2016-Feb-01 16:34N 47°16' W 122°27'1 0.1
2016-Jan-31 23:30N 47°15' W 122°26'1 0.9
2016-Jan-31 22:33N 47°16' W 122°27'  
Track history (hours):
 
Tides and Currents Weather Stations Pressure Air Temp Water Temp Dewpoint Dewpoint Depression Visibility Wind Speed Wind Dir Waves Ship Positions

Swift Arrow

Owner: ARROW LAUNCH SERVICE INC, Port Angeles, WA. More information available from US FCC via Universal Licensing System and Coast Guard Vessel Documentation Center.

Last reported at 2016-Feb-09 05:11 UTC. Time now 2016-Feb-09 05:42 UTC.
Position N 47°15' W 122°26'.

Type: Port tender. MMSI: 369021000.

Date/timePositionNaut miles runAvg speedWind from/ knotsBaromVisibWave heightAir tempDewpointWater temp
2016-Feb-09 05:11N 47°15' W 122°26'2 0.3
2016-Feb-08 23:34N 47°17' W 122°26'2 0.0
2016-Feb-06 21:09N 47°15' W 122°26'2 3.1
2016-Feb-06 20:33N 47°17' W 122°26'1 0.8
2016-Feb-06 19:33N 47°17' W 122°26'1 0.5
2016-Feb-06 18:30N 47°17' W 122°26'1 1.5
2016-Feb-06 17:33N 47°16' W 122°26'0 0.0
2016-Feb-05 04:09N 47°15' W 122°26'4 6.8
2016-Feb-05 03:33N 47°18' W 122°30'3 1.2
2016-Feb-05 00:33N 47°16' W 122°26'0 0.1
2016-Feb-04 20:33N 47°16' W 122°27'3 3.3
2016-Feb-04 19:33N 47°18' W 122°30'0 0.1
2016-Feb-04 18:34N 47°19' W 122°30'0 0.1
2016-Feb-04 17:33N 47°18' W 122°30'2 0.1
2016-Feb-04 03:33N 47°17' W 122°27'  
2016-Feb-01 21:19N 47°15' W 122°26'1 1.8
2016-Feb-01 20:33N 47°16' W 122°27'0 0.1
2016-Feb-01 19:33N 47°17' W 122°27'0 0.0
2016-Feb-01 16:34N 47°16' W 122°27'1 0.1
2016-Jan-31 23:30N 47°15' W 122°26'1 0.9
2016-Jan-31 22:33N 47°16' W 122°27'  

Dump ship's entire track history